Time;durP1;ratioP1;P1;durP2;ratioP2;P2;SDS_P1;SDS_P2;PMS_P1;PMS_P2;Temp;Humidity;BMP_temperature;BMP_pressure;BME280_temperature;BME280_humidity;BME280_pressure;Samples;Min_cycle;Max_cycle;Signal;HPM_P1;HPM_P2
2022/11/18 00:01:31;;;;;;;;;;;;;;;;;;6230500;22;20009;-90
2022/11/18 00:03:57;;;;;;;;;;;;;;;;;;6231811;22;19986;-90
2022/11/18 00:06:23;;;;;;;;;;;;;;;;;;6229683;22;19922;-90
2022/11/18 00:08:49;;;;;;;;;;;;;;;;;;6233936;22;20299;-90
2022/11/18 00:14:21;;;;;;;;;;;;;;;;;;6221709;22;19926;-90
2022/11/18 00:16:47;;;;;;;;;;;;;;;;;;6234442;22;19977;-89
2022/11/18 00:19:13;;;;;;;;;;;;;;;;;;6234995;22;20336;-90
2022/11/18 00:21:39;;;;;;;;;;;;;;;;;;6232282;22;19919;-90
2022/11/18 00:24:05;;;;;;;;;;;;;;;;;;6233627;22;19919;-91
2022/11/18 00:26:31;;;;;;;;;;;;;;;;;;6230549;22;19994;-91
2022/11/18 00:28:56;;;;;;;;;;;;;;;;;;6230838;22;19926;-91
2022/11/18 00:31:22;;;;;;;;;;;;;;;;;;6229359;22;19919;-90
2022/11/18 00:33:48;;;;;;;;;;;;;;;;;;6231603;22;19961;-91
2022/11/18 00:36:14;;;;;;;;;;;;;;;;;;6231772;22;19939;-91
2022/11/18 00:38:40;;;;;;;;;;;;;;;;;;6228436;22;19954;-91
2022/11/18 00:41:06;;;;;;;;;;;;;;;;;;6229941;22;19945;-91
2022/11/18 00:43:32;;;;;;;;;;;;;;;;;;6229474;22;19955;-90
2022/11/18 00:45:58;;;;;;;;;;;;;;;;;;6232643;22;19919;-91
2022/11/18 00:48:24;;;;;;;;;;;;;;;;;;6226982;22;20376;-91
2022/11/18 00:50:50;;;;;;;;;;;;;;;;;;6228841;22;19915;-91
2022/11/18 00:53:16;;;;;;;;;;;;;;;;;;6228248;22;19958;-91
2022/11/18 00:55:42;;;;;;;;;;;;;;;;;;6226581;22;19915;-91
2022/11/18 00:58:08;;;;;;;;;;;;;;;;;;6230474;22;19926;-91
2022/11/18 01:00:34;;;;;;;;;;;;;;;;;;6224987;22;20434;-91
2022/11/18 01:03:01;;;;;;;;;;;;;;;;;;6226394;22;19923;-91
2022/11/18 01:05:27;;;;;;;;;;;;;;;;;;6222428;22;19999;-91
2022/11/18 01:07:53;;;;;;;;;;;;;;;;;;6222939;22;20318;-90
2022/11/18 01:10:19;;;;;;;;;;;;;;;;;;6226834;22;19920;-91
2022/11/18 01:15:30;;;;;;;;;;;;;;;;;;6226934;22;20230;-91
2022/11/18 01:17:56;;;;;;;;;;;;;;;;;;6228290;22;20014;-91
2022/11/18 01:20:25;;;;;;;;;;;;;;;;;;6226431;22;19919;-91
2022/11/18 01:22:51;;;;;;;;;;;;;;;;;;6256509;22;20317;-90
2022/11/18 01:25:19;;;;;;;;;;;;;;;;;;6230741;22;20038;-90
2022/11/18 01:27:45;;;;;;;;;;;;;;;;;;6228676;22;19926;-91
2022/11/18 01:30:11;;;;;;;;;;;;;;;;;;6228266;22;20252;-91
2022/11/18 01:32:37;;;;;;;;;;;;;;;;;;6228099;22;20002;-91
2022/11/18 01:35:03;;;;;;;;;;;;;;;;;;6227996;22;19938;-90
2022/11/18 01:37:29;;;;;;;;;;;;;;;;;;6229296;22;20017;-90
2022/11/18 01:39:55;;;;;;;;;;;;;;;;;;6232297;22;20382;-90
2022/11/18 01:42:21;;;;;;;;;;;;;;;;;;6230782;22;19923;-91
2022/11/18 01:44:47;;;;;;;;;;;;;;;;;;6229774;22;20320;-91
2022/11/18 01:47:13;;;;;;;;;;;;;;;;;;6230441;22;20394;-91
2022/11/18 01:49:39;;;;;;;;;;;;;;;;;;6227972;22;19977;-91
2022/11/18 01:52:05;;;;;;;;;;;;;;;;;;6229062;22;20408;-91
2022/11/18 01:54:31;;;;;;;;;;;;;;;;;;6226247;22;19965;-90
2022/11/18 01:56:57;;;;;;;;;;;;;;;;;;6233469;22;19915;-91
2022/11/18 01:59:23;;;;;;;;;;;;;;;;;;6231376;22;19938;-91
2022/11/18 02:01:49;;;;;;;;;;;;;;;;;;6232644;22;19923;-91
2022/11/18 02:04:14;;;;;;;;;;;;;;;;;;6232787;22;19926;-91
2022/11/18 02:06:40;;;;;;;;;;;;;;;;;;6229769;22;20337;-91
2022/11/18 02:09:06;;;;;;;;;;;;;;;;;;6233928;22;19919;-91
2022/11/18 02:11:52;;;;;;;;;;;;;;;;;;6226435;22;19919;-91
2022/11/18 02:14:18;;;;;;;;;;;;;;;;;;6224369;22;19918;-91
2022/11/18 02:16:44;;;;;;;;;;;;;;;;;;6229823;22;19923;-91
2022/11/18 02:19:10;;;;;;;;;;;;;;;;;;6227653;22;19919;-91
2022/11/18 02:21:36;;;;;;;;;;;;;;;;;;6228123;22;20319;-91
2022/11/18 02:24:02;;;;;;;;;;;;;;;;;;6233839;22;19931;-91
2022/11/18 02:26:28;;;;;;;;;;;;;;;;;;6228732;22;19925;-91
2022/11/18 02:28:54;;;;;;;;;;;;;;;;;;6230182;22;19981;-91
2022/11/18 02:31:20;;;;;;;;;;;;;;;;;;6229335;22;19919;-90
2022/11/18 02:33:46;;;;;;;;;;;;;;;;;;6228649;22;20344;-91
2022/11/18 02:36:12;;;;;;;;;;;;;;;;;;6230215;22;19915;-91
2022/11/18 02:38:38;;;;;;;;;;;;;;;;;;6229038;22;20461;-91
2022/11/18 02:41:04;;;;;;;;;;;;;;;;;;6231427;22;20298;-91
2022/11/18 02:43:30;;;;;;;;;;;;;;;;;;6223844;22;19919;-91
2022/11/18 02:45:56;;;;;;;;;;;;;;;;;;6229672;22;19926;-91
2022/11/18 02:48:22;;;;;;;;;;;;;;;;;;6226457;22;19919;-91
2022/11/18 02:50:48;;;;;;;;;;;;;;;;;;6230864;22;19923;-91
2022/11/18 02:53:13;;;;;;;;;;;;;;;;;;6231662;22;20002;-91
2022/11/18 02:55:39;;;;;;;;;;;;;;;;;;6228148;22;20316;-91
2022/11/18 02:58:05;;;;;;;;;;;;;;;;;;6233765;22;19950;-91
2022/11/18 03:00:31;;;;;;;;;;;;;;;;;;6230083;22;19926;-91
2022/11/18 03:02:57;;;;;;;;;;;;;;;;;;6231478;22;19954;-91
2022/11/18 03:05:23;;;;;;;;;;;;;;;;;;6229319;22;19981;-91
2022/11/18 03:07:49;;;;;;;;;;;;;;;;;;6231302;22;19919;-90
2022/11/18 03:10:23;;;;;;;;;;;;;;;;;;6232057;22;20299;-92
2022/11/18 03:12:49;;;;;;;;;;;;;;;;;;6231695;22;19924;-90
2022/11/18 03:15:15;;;;;;;;;;;;;;;;;;6233257;22;19982;-91
2022/11/18 03:17:41;;;;;;;;;;;;;;;;;;6228221;22;19919;-91
2022/11/18 03:20:07;;;;;;;;;;;;;;;;;;6230315;22;20301;-90
2022/11/18 03:22:33;;;;;;;;;;;;;;;;;;6230078;22;19925;-90
2022/11/18 03:24:59;;;;;;;;;;;;;;;;;;6235019;22;19986;-90
2022/11/18 03:27:25;;;;;;;;;;;;;;;;;;6234871;22;19926;-91
2022/11/18 03:29:50;;;;;;;;;;;;;;;;;;6231596;22;19915;-91
2022/11/18 03:32:16;;;;;;;;;;;;;;;;;;6230143;22;20093;-91
2022/11/18 03:34:43;;;;;;;;;;;;;;;;;;6229779;22;19926;-91
2022/11/18 03:37:09;;;;;;;;;;;;;;;;;;6256249;22;19919;-91
2022/11/18 03:39:35;;;;;;;;;;;;;;;;;;6228501;22;19926;-91
2022/11/18 03:42:01;;;;;;;;;;;;;;;;;;6229088;22;19954;-91
2022/11/18 03:44:27;;;;;;;;;;;;;;;;;;6226123;22;19923;-91
2022/11/18 03:46:53;;;;;;;;;;;;;;;;;;6230722;22;19919;-91
2022/11/18 03:49:19;;;;;;;;;;;;;;;;;;6227613;22;20355;-90
2022/11/18 03:51:45;;;;;;;;;;;;;;;;;;6231694;22;19962;-91
2022/11/18 03:54:11;;;;;;;;;;;;;;;;;;6228996;22;20241;-90
2022/11/18 03:56:37;;;;;;;;;;;;;;;;;;6226974;22;19921;-91
2022/11/18 03:59:02;;;;;;;;;;;;;;;;;;6231978;22;20529;-91
2022/11/18 04:01:28;;;;;;;;;;;;;;;;;;6229305;22;19919;-91
2022/11/18 04:03:54;;;;;;;;;;;;;;;;;;6230601;22;19919;-91
2022/11/18 04:06:20;;;;;;;;;;;;;;;;;;6228357;22;20383;-91
2022/11/18 04:08:46;;;;;;;;;;;;;;;;;;6230142;22;19916;-91
2022/11/18 04:12:01;;;;;;;;;;;;;;;;;;6229727;22;19920;-91
2022/11/18 04:13:58;;;;;;;;;;;;;;;;;;6234610;22;19930;-91
2022/11/18 04:16:24;;;;;;;;;;;;;;;;;;6232249;22;19926;-90
2022/11/18 04:18:50;;;;;;;;;;;;;;;;;;6235846;22;19919;-90
2022/11/18 04:21:16;;;;;;;;;;;;;;;;;;6231349;22;19926;-91
2022/11/18 04:23:42;;;;;;;;;;;;;;;;;;6229272;22;19919;-91
2022/11/18 04:26:08;;;;;;;;;;;;;;;;;;6229930;22;19916;-91
2022/11/18 04:28:34;;;;;;;;;;;;;;;;;;6227651;22;19923;-91
2022/11/18 04:31:00;;;;;;;;;;;;;;;;;;6231847;22;19923;-90
2022/11/18 04:33:26;;;;;;;;;;;;;;;;;;6226021;22;19946;-91
2022/11/18 04:35:52;;;;;;;;;;;;;;;;;;6229367;22;19923;-91
2022/11/18 04:38:18;;;;;;;;;;;;;;;;;;6228129;22;20263;-91
2022/11/18 04:40:44;;;;;;;;;;;;;;;;;;6228851;22;20331;-91
2022/11/18 04:43:10;;;;;;;;;;;;;;;;;;6232753;22;19994;-90
2022/11/18 04:45:36;;;;;;;;;;;;;;;;;;6227991;22;20295;-91
2022/11/18 04:48:02;;;;;;;;;;;;;;;;;;6230035;22;19919;-91
2022/11/18 04:50:28;;;;;;;;;;;;;;;;;;6225900;22;19915;-91
2022/11/18 04:52:54;;;;;;;;;;;;;;;;;;6227865;22;20245;-91
2022/11/18 04:55:20;;;;;;;;;;;;;;;;;;6233663;22;20010;-91
2022/11/18 04:57:46;;;;;;;;;;;;;;;;;;6231991;22;19923;-91
2022/11/18 05:00:12;;;;;;;;;;;;;;;;;;6231876;22;19997;-92
2022/11/18 05:02:38;;;;;;;;;;;;;;;;;;6232126;22;20220;-91
2022/11/18 05:05:04;;;;;;;;;;;;;;;;;;6234519;22;19915;-91
2022/11/18 05:07:30;;;;;;;;;;;;;;;;;;6234710;22;19990;-91
2022/11/18 05:09:56;;;;;;;;;;;;;;;;;;6236831;22;20333;-91
2022/11/18 05:15:06;;;;;;;;;;;;;;;;;;6233592;22;19986;-91
2022/11/18 05:17:32;;;;;;;;;;;;;;;;;;6231805;22;19977;-90
2022/11/18 05:19:58;;;;;;;;;;;;;;;;;;6233972;22;19927;-91
2022/11/18 05:22:24;;;;;;;;;;;;;;;;;;6233084;22;19954;-91
2022/11/18 05:24:50;;;;;;;;;;;;;;;;;;6235143;22;19919;-91
2022/11/18 05:27:16;;;;;;;;;;;;;;;;;;6233970;22;20297;-91
2022/11/18 05:29:42;;;;;;;;;;;;;;;;;;6232678;22;19919;-91
2022/11/18 05:32:08;;;;;;;;;;;;;;;;;;6232338;22;19923;-91
2022/11/18 05:34:34;;;;;;;;;;;;;;;;;;6229330;22;19961;-91
2022/11/18 05:37:00;;;;;;;;;;;;;;;;;;6228726;22;20256;-91
2022/11/18 05:39:26;;;;;;;;;;;;;;;;;;6226800;22;19990;-91
2022/11/18 05:44:37;;;;;;;;;;;;;;;;;;6226972;22;20006;-91
2022/11/18 05:47:03;;;;;;;;;;;;;;;;;;6228909;22;19995;-91
2022/11/18 05:49:29;;;;;;;;;;;;;;;;;;6225610;22;19969;-90
2022/11/18 05:51:55;;;;;;;;;;;;;;;;;;6227186;22;20503;-90
2022/11/18 05:54:21;;;;;;;;;;;;;;;;;;6225506;22;20293;-91
2022/11/18 05:56:47;;;;;;;;;;;;;;;;;;6230633;22;19925;-91
2022/11/18 05:59:13;;;;;;;;;;;;;;;;;;6233816;22;19919;-91
2022/11/18 06:01:38;;;;;;;;;;;;;;;;;;6228612;22;19919;-91
2022/11/18 06:04:04;;;;;;;;;;;;;;;;;;6232318;22;19919;-91
2022/11/18 06:06:30;;;;;;;;;;;;;;;;;;6226656;22;19919;-91
2022/11/18 06:08:56;;;;;;;;;;;;;;;;;;6227493;22;19915;-91
2022/11/18 06:11:22;;;;;;;;;;;;;;;;;;6227134;22;19990;-91
2022/11/18 06:13:49;;;;;;;;;;;;;;;;;;6231844;22;19915;-91
2022/11/18 06:16:15;;;;;;;;;;;;;;;;;;6232168;22;20359;-91
2022/11/18 06:18:41;;;;;;;;;;;;;;;;;;6229175;22;19982;-92
2022/11/18 06:21:07;;;;;;;;;;;;;;;;;;6230616;22;19926;-90
2022/11/18 06:23:33;;;;;;;;;;;;;;;;;;6225680;22;19965;-91
2022/11/18 06:25:59;;;;;;;;;;;;;;;;;;6229877;22;19919;-91
2022/11/18 06:28:25;;;;;;;;;;;;;;;;;;6232367;22;20261;-91
2022/11/18 06:30:51;;;;;;;;;;;;;;;;;;6232898;22;19919;-91
2022/11/18 06:33:17;;;;;;;;;;;;;;;;;;6234984;22;19955;-91
2022/11/18 06:35:43;;;;;;;;;;;;;;;;;;6229915;22;20340;-91
2022/11/18 06:38:09;;;;;;;;;;;;;;;;;;6230931;22;19931;-91
2022/11/18 06:40:36;;;;;;;;;;;;;;;;;;6226864;22;19969;-91
2022/11/18 06:46:54;;;;;;;;;;;;;;;;;;6232809;22;20367;-91
2022/11/18 06:48:33;;;;;;;;;;;;;;;;;;6229429;22;19923;-92
2022/11/18 06:50:59;;;;;;;;;;;;;;;;;;6225660;22;19919;-92
2022/11/18 06:53:25;;;;;;;;;;;;;;;;;;6229212;22;19923;-92
2022/11/18 06:55:51;;;;;;;;;;;;;;;;;;6231926;22;19919;-92
2022/11/18 06:58:20;;;;;;;;;;;;;;;;;;6231123;22;20053;-92
2022/11/18 07:00:46;;;;;;;;;;;;;;;;;;6232542;22;20340;-92
2022/11/18 07:03:11;;;;;;;;;;;;;;;;;;6232669;22;19926;-92
2022/11/18 07:05:37;;;;;;;;;;;;;;;;;;6230998;22;20501;-92
2022/11/18 07:08:05;;;;;;;;;;;;;;;;;;6235500;22;20018;-93
2022/11/18 07:10:31;;;;;;;;;;;;;;;;;;6232848;22;19919;-93
2022/11/18 07:12:57;;;;;;;;;;;;;;;;;;6229902;22;19928;-93
2022/11/18 07:15:23;;;;;;;;;;;;;;;;;;6232429;22;20327;-92
2022/11/18 07:17:49;;;;;;;;;;;;;;;;;;6231898;22;19920;-93
2022/11/18 07:20:15;;;;;;;;;;;;;;;;;;6230663;22;20170;-92
2022/11/18 07:22:41;;;;;;;;;;;;;;;;;;6233463;22;20324;-92
2022/11/18 07:25:07;;;;;;;;;;;;;;;;;;6233451;22;20328;-92
2022/11/18 07:27:33;;;;;;;;;;;;;;;;;;6232278;22;19916;-92
2022/11/18 07:29:59;;;;;;;;;;;;;;;;;;6233805;22;19960;-92
2022/11/18 07:32:25;;;;;;;;;;;;;;;;;;6228901;22;19923;-91
2022/11/18 07:34:51;;;;;;;;;;;;;;;;;;6231675;22;19923;-92
2022/11/18 07:37:23;;;;;;;;;;;;;;;;;;6232691;22;20271;-92
2022/11/18 07:39:49;;;;;;;;;;;;;;;;;;6233795;22;20347;-92
2022/11/18 07:42:15;;;;;;;;;;;;;;;;;;6232947;22;19919;-92
2022/11/18 07:44:41;;;;;;;;;;;;;;;;;;6230302;22;20260;-92
2022/11/18 07:47:07;;;;;;;;;;;;;;;;;;6233847;22;19923;-92
2022/11/18 07:49:33;;;;;;;;;;;;;;;;;;6231648;22;20336;-92
2022/11/18 07:51:59;;;;;;;;;;;;;;;;;;6236044;22;19998;-92
2022/11/18 07:54:25;;;;;;;;;;;;;;;;;;6231031;22;19923;-92
2022/11/18 07:56:51;;;;;;;;;;;;;;;;;;6233033;22;19950;-92
2022/11/18 07:59:20;;;;;;;;;;;;;;;;;;6230781;22;19990;-92
2022/11/18 08:01:46;;;;;;;;;;;;;;;;;;6230739;22;20347;-92
2022/11/18 08:04:18;;;;;;;;;;;;;;;;;;6229377;22;19919;-92
2022/11/18 08:06:47;;;;;;;;;;;;;;;;;;6231576;22;19951;-92
2022/11/18 08:09:15;;;;;;;;;;;;;;;;;;6237100;22;19990;-92
2022/11/18 08:11:44;;;;;;;;;;;;;;;;;;6232696;22;19926;-93
2022/11/18 08:20:02;;;;;;;;;;;;;;;;;;6253300;22;19985;-93
2022/11/18 08:22:29;;;;;;;;;;;;;;;;;;6231901;22;20294;-92
2022/11/18 08:25:03;;;;;;;;;;;;;;;;;;6236062;22;19923;-92
2022/11/18 08:27:32;;;;;;;;;;;;;;;;;;6234893;22;20340;-92
2022/11/18 08:30:01;;;;;;;;;;;;;;;;;;6238611;22;20241;-92
2022/11/18 08:32:27;;;;;;;;;;;;;;;;;;6234527;22;20748;-92
2022/11/18 08:34:53;;;;;;;;;;;;;;;;;;6236580;22;19950;-91
2022/11/18 08:37:22;;;;;;;;;;;;;;;;;;6233682;22;20335;-92
2022/11/18 08:39:54;;;;;;;;;;;;;;;;;;6235431;22;19951;-92
2022/11/18 08:45:46;;;;;;;;;;;;;;;;;;6272313;22;19949;-92
2022/11/18 08:48:33;;;;;;;;;;;;;;;;;;6233586;22;19955;-91
2022/11/18 08:51:16;;;;;;;;;;;;;;;;;;6250405;22;20427;-91
2022/11/18 08:56:46;;;;;;;;;;;;;;;;;;6267159;22;19930;-92
2022/11/18 08:59:31;;;;;;;;;;;;;;;;;;6235027;22;20334;-92
2022/11/18 09:02:16;;;;;;;;;;;;;;;;;;6233815;22;20018;-92
2022/11/18 09:07:59;;;;;;;;;;;;;;;;;;6218613;22;20336;-91
2022/11/18 09:10:52;;;;;;;;;;;;;;;;;;6197424;23;20313;-90
2022/11/18 09:13:40;;;;;;;;;;;;;;;;;;;;;
2022/11/18 09:18:57;;;;;;;;;;;;;;;;;;6140833;23;19920;-91
2022/11/18 09:21:47;;;;;;;;;;;;;;;;;;6141498;23;19920;-92
2022/11/18 09:24:16;;;;;;;;;;;;;;;;;;6143633;23;20389;-92
2022/11/18 09:26:48;;;;;;;;;;;;;;;;;;6142262;23;19923;-91
2022/11/18 09:29:24;;;;;;;;;;;;;;;;;;;;;
2022/11/18 09:31:56;;;;;;;;;;;;;;;;;;6139151;23;19920;-91
2022/11/18 09:34:22;;;;;;;;;;;;;;;;;;6137975;23;19923;-91
2022/11/18 09:39:38;;;;;;;;;;;;;;;;;;6144246;23;20105;-91
2022/11/18 09:42:04;;;;;;;;;;;;;;;;;;6147183;23;19943;-90
2022/11/18 09:44:30;;;;;;;;;;;;;;;;;;6191739;22;19954;-91
2022/11/18 09:46:56;;;;;;;;;;;;;;;;;;6238642;22;19945;-91
2022/11/18 09:49:22;;;;;;;;;;;;;;;;;;6235247;22;19921;-92
2022/11/18 09:51:48;;;;;;;;;;;;;;;;;;6239995;22;19915;-91
2022/11/18 09:54:14;;;;;;;;;;;;;;;;;;6240384;22;19919;-92
2022/11/18 09:56:40;;;;;;;;;;;;;;;;;;6237887;22;19931;-91
2022/11/18 09:59:06;;;;;;;;;;;;;;;;;;6238967;22;19915;-92
2022/11/18 10:01:32;;;;;;;;;;;;;;;;;;6238186;22;19919;-92
2022/11/18 10:03:59;;;;;;;;;;;;;;;;;;6242504;22;19929;-91
2022/11/18 10:06:25;;;;;;;;;;;;;;;;;;6240420;22;19926;-91
2022/11/18 10:08:51;;;;;;;;;;;;;;;;;;6242636;22;19916;-92
2022/11/18 10:11:17;;;;;;;;;;;;;;;;;;6240342;22;19924;-91
2022/11/18 10:13:43;;;;;;;;;;;;;;;;;;6242327;22;20287;-92
2022/11/18 10:16:09;;;;;;;;;;;;;;;;;;6242003;22;19920;-91
2022/11/18 10:18:35;;;;;;;;;;;;;;;;;;6240579;22;20244;-91
2022/11/18 10:21:03;;;;;;;;;;;;;;;;;;6242485;22;19915;-92
2022/11/18 10:23:29;;;;;;;;;;;;;;;;;;6238978;22;19974;-92
2022/11/18 10:25:55;;;;;;;;;;;;;;;;;;6242410;22;19919;-91
2022/11/18 10:28:21;;;;;;;;;;;;;;;;;;6240521;22;19916;-91
2022/11/18 10:30:47;;;;;;;;;;;;;;;;;;6241965;22;20356;-92
2022/11/18 10:33:13;;;;;;;;;;;;;;;;;;6241540;22;19919;-91
2022/11/18 10:35:39;;;;;;;;;;;;;;;;;;6238967;22;20322;-91
2022/11/18 10:38:05;;;;;;;;;;;;;;;;;;6242331;22;19919;-92
2022/11/18 10:40:31;;;;;;;;;;;;;;;;;;6239197;22;20381;-91
2022/11/18 10:42:57;;;;;;;;;;;;;;;;;;6240804;22;19929;-91
2022/11/18 10:45:23;;;;;;;;;;;;;;;;;;6238313;22;20248;-92
2022/11/18 10:47:49;;;;;;;;;;;;;;;;;;6241796;22;19919;-92
2022/11/18 10:50:15;;;;;;;;;;;;;;;;;;6241321;22;19966;-92
2022/11/18 10:52:41;;;;;;;;;;;;;;;;;;6237548;22;19927;-92
2022/11/18 10:55:07;;;;;;;;;;;;;;;;;;6240860;22;19947;-91
2022/11/18 10:57:33;;;;;;;;;;;;;;;;;;6237892;22;19998;-91
2022/11/18 10:59:59;;;;;;;;;;;;;;;;;;6240715;22;19919;-91
2022/11/18 11:02:25;;;;;;;;;;;;;;;;;;6237859;22;19919;-91
2022/11/18 11:04:51;;;;;;;;;;;;;;;;;;6238875;22;19915;-92
2022/11/18 11:07:17;;;;;;;;;;;;;;;;;;6235929;22;19923;-92
2022/11/18 11:09:44;;;;;;;;;;;;;;;;;;6238710;22;19919;-93
2022/11/18 11:12:10;;;;;;;;;;;;;;;;;;6240331;22;19955;-92
2022/11/18 11:14:36;;;;;;;;;;;;;;;;;;6235261;22;20256;-92
2022/11/18 11:17:02;;;;;;;;;;;;;;;;;;6239715;22;19915;-91
2022/11/18 11:19:28;;;;;;;;;;;;;;;;;;6237535;22;19928;-91
2022/11/18 11:21:54;;;;;;;;;;;;;;;;;;6238230;22;19938;-91
2022/11/18 11:24:20;;;;;;;;;;;;;;;;;;6234717;22;19923;-92
2022/11/18 11:26:46;;;;;;;;;;;;;;;;;;6238154;22;20350;-92
2022/11/18 11:29:12;;;;;;;;;;;;;;;;;;6238112;22;19919;-91
2022/11/18 11:31:38;;;;;;;;;;;;;;;;;;6233865;22;20821;-91
2022/11/18 11:34:04;;;;;;;;;;;;;;;;;;6239525;22;19919;-91
2022/11/18 11:36:30;;;;;;;;;;;;;;;;;;6233744;22;19919;-91
2022/11/18 11:38:57;;;;;;;;;;;;;;;;;;6239789;22;19923;-91
2022/11/18 11:41:24;;;;;;;;;;;;;;;;;;6238762;22;19915;-91
2022/11/18 11:43:49;;;;;;;;;;;;;;;;;;6239645;22;19915;-91
2022/11/18 11:46:15;;;;;;;;;;;;;;;;;;6241634;22;20418;-91
2022/11/18 11:48:41;;;;;;;;;;;;;;;;;;6237046;22;19997;-91
2022/11/18 11:51:07;;;;;;;;;;;;;;;;;;6239099;22;19973;-91
2022/11/18 11:53:33;;;;;;;;;;;;;;;;;;6234881;22;20150;-90
2022/11/18 11:55:59;;;;;;;;;;;;;;;;;;6236931;22;20396;-91
2022/11/18 11:58:25;;;;;;;;;;;;;;;;;;6236151;22;19926;-91
2022/11/18 12:00:51;;;;;;;;;;;;;;;;;;6238320;22;19926;-91
2022/11/18 12:03:20;;;;;;;;;;;;;;;;;;6239354;22;20022;-91
2022/11/18 12:05:46;;;;;;;;;;;;;;;;;;6236245;22;19922;-90
2022/11/18 12:08:12;;;;;;;;;;;;;;;;;;6238646;22;19919;-91
2022/11/18 12:10:38;;;;;;;;;;;;;;;;;;6264107;22;20477;-91
2022/11/18 12:13:07;;;;;;;;;;;;;;;;;;6237941;22;19923;-91
2022/11/18 12:15:33;;;;;;;;;;;;;;;;;;6231990;22;20426;-91
2022/11/18 12:17:59;;;;;;;;;;;;;;;;;;6237188;22;19990;-92
2022/11/18 12:20:25;;;;;;;;;;;;;;;;;;6232788;22;19923;-92
2022/11/18 12:22:51;;;;;;;;;;;;;;;;;;6235658;22;19919;-91
2022/11/18 12:25:20;;;;;;;;;;;;;;;;;;6237890;22;19962;-91
2022/11/18 12:27:46;;;;;;;;;;;;;;;;;;6237351;22;20283;-93
2022/11/18 12:30:12;;;;;;;;;;;;;;;;;;6231827;22;19918;-93
2022/11/18 12:32:41;;;;;;;;;;;;;;;;;;6233782;22;20479;-92
2022/11/18 12:35:07;;;;;;;;;;;;;;;;;;6235817;22;19923;-93
2022/11/18 12:37:33;;;;;;;;;;;;;;;;;;6229742;22;19926;-92
2022/11/18 12:39:59;;;;;;;;;;;;;;;;;;6234716;22;20359;-93
2022/11/18 12:45:12;;;;;;;;;;;;;;;;;;6240041;22;19919;-94
2022/11/18 12:47:41;;;;;;;;;;;;;;;;;;6233428;22;20355;-95
2022/11/18 12:50:16;;;;;;;;;;;;;;;;;;6235867;22;19980;-93
2022/11/18 12:52:42;;;;;;;;;;;;;;;;;;6235298;22;19919;-92
2022/11/18 12:55:08;;;;;;;;;;;;;;;;;;6235983;22;19925;-93
2022/11/18 12:57:34;;;;;;;;;;;;;;;;;;6233921;22;19919;-93
2022/11/18 13:00:03;;;;;;;;;;;;;;;;;;6230034;22;19931;-93
2022/11/18 13:05:22;;;;;;;;;;;;;;;;;;6229893;22;20359;-94
2022/11/18 13:10:42;;;;;;;;;;;;;;;;;;6228066;22;19919;-94
2022/11/18 13:13:27;;;;;;;;;;;;;;;;;;6230195;22;20008;-93
2022/11/18 13:18:51;;;;;;;;;;;;;;;;;;6239119;22;20332;-93
2022/11/18 13:24:02;;;;;;;;;;;;;;;;;;6237597;22;19919;-93
2022/11/18 13:26:31;;;;;;;;;;;;;;;;;;6234766;22;19915;-94
2022/11/18 13:29:06;;;;;;;;;;;;;;;;;;6235635;22;19930;-93
2022/11/18 13:31:34;;;;;;;;;;;;;;;;;;6235740;22;19926;-93
2022/11/18 13:34:03;;;;;;;;;;;;;;;;;;6238792;22;19923;-93
2022/11/18 13:36:32;;;;;;;;;;;;;;;;;;6228447;22;19919;-94
2022/11/18 13:38:58;;;;;;;;;;;;;;;;;;6231239;22;19919;-95
2022/11/18 13:41:31;;;;;;;;;;;;;;;;;;6224657;22;20310;-94
2022/11/18 13:43:58;;;;;;;;;;;;;;;;;;6239041;22;19923;-91
2022/11/18 13:46:24;;;;;;;;;;;;;;;;;;6236453;22;20225;-93
2022/11/18 13:48:50;;;;;;;;;;;;;;;;;;6240754;22;20294;-93
2022/11/18 13:51:16;;;;;;;;;;;;;;;;;;6239882;22;19998;-92
2022/11/18 13:53:43;;;;;;;;;;;;;;;;;;6233752;22;19994;-93
2022/11/18 13:56:09;;;;;;;;;;;;;;;;;;6234945;22;19923;-93
2022/11/18 13:58:35;;;;;;;;;;;;;;;;;;6236633;22;19915;-93
2022/11/18 14:01:02;;;;;;;;;;;;;;;;;;6263164;22;20316;-93
2022/11/18 14:03:28;;;;;;;;;;;;;;;;;;6233648;22;19915;-92
2022/11/18 14:05:56;;;;;;;;;;;;;;;;;;6235568;22;20001;-93
2022/11/18 14:08:22;;;;;;;;;;;;;;;;;;6238211;22;19919;-92
2022/11/18 14:10:48;;;;;;;;;;;;;;;;;;6243751;22;19922;-92
2022/11/18 14:13:14;;;;;;;;;;;;;;;;;;6238920;22;19919;-92
2022/11/18 14:15:40;;;;;;;;;;;;;;;;;;6232744;22;19919;-93
2022/11/18 14:18:06;;;;;;;;;;;;;;;;;;6236484;22;20493;-93
2022/11/18 14:20:32;;;;;;;;;;;;;;;;;;6230842;22;19919;-93
2022/11/18 14:23:09;;;;;;;;;;;;;;;;;;6237084;22;19965;-92
2022/11/18 14:25:35;;;;;;;;;;;;;;;;;;6230505;22;19919;-93
2022/11/18 14:28:01;;;;;;;;;;;;;;;;;;6234114;22;20359;-92
2022/11/18 14:30:27;;;;;;;;;;;;;;;;;;6230834;22;19977;-93
2022/11/18 14:32:53;;;;;;;;;;;;;;;;;;6237504;22;19938;-93
2022/11/18 14:35:19;;;;;;;;;;;;;;;;;;6230860;22;19934;-92
2022/11/18 14:37:45;;;;;;;;;;;;;;;;;;6238530;22;19915;-92
2022/11/18 14:40:11;;;;;;;;;;;;;;;;;;6236380;22;20262;-91
2022/11/18 14:42:38;;;;;;;;;;;;;;;;;;6231320;22;19923;-91
2022/11/18 14:45:04;;;;;;;;;;;;;;;;;;6233632;22;19942;-92
2022/11/18 14:47:30;;;;;;;;;;;;;;;;;;6236703;22;19919;-92
2022/11/18 14:49:56;;;;;;;;;;;;;;;;;;6240357;22;20362;-91
2022/11/18 14:52:22;;;;;;;;;;;;;;;;;;6236482;22;19923;-91
2022/11/18 14:54:48;;;;;;;;;;;;;;;;;;6240579;22;19919;-91
2022/11/18 14:57:15;;;;;;;;;;;;;;;;;;6238108;22;19919;-91
2022/11/18 14:59:41;;;;;;;;;;;;;;;;;;6238327;22;20407;-91
2022/11/18 15:02:09;;;;;;;;;;;;;;;;;;6232723;22;19915;-91
2022/11/18 15:04:35;;;;;;;;;;;;;;;;;;6235779;22;19926;-92
2022/11/18 15:07:04;;;;;;;;;;;;;;;;;;6237825;22;20328;-91
2022/11/18 15:09:30;;;;;;;;;;;;;;;;;;6237787;22;19919;-91
2022/11/18 15:11:56;;;;;;;;;;;;;;;;;;6241016;22;19920;-92
2022/11/18 15:14:22;;;;;;;;;;;;;;;;;;6237318;22;19919;-91
2022/11/18 15:16:48;;;;;;;;;;;;;;;;;;6238402;22;19937;-92
2022/11/18 15:19:14;;;;;;;;;;;;;;;;;;6238305;22;19919;-92
2022/11/18 15:21:40;;;;;;;;;;;;;;;;;;6235173;22;19919;-92
2022/11/18 15:24:08;;;;;;;;;;;;;;;;;;6238634;22;19980;-92
2022/11/18 15:26:36;;;;;;;;;;;;;;;;;;6233469;22;19919;-92
2022/11/18 15:32:05;;;;;;;;;;;;;;;;;;6274178;22;19918;-93
2022/11/18 15:34:31;;;;;;;;;;;;;;;;;;6234767;22;19955;-91
2022/11/18 15:45:32;;;;;;;;;;;;;;;;;;6263499;22;19996;-93
2022/11/18 15:50:48;;;;;;;;;;;;;;;;;;6228393;22;19925;-95
2022/11/18 15:53:19;;;;;;;;;;;;;;;;;;6213309;22;19923;-92
2022/11/18 15:55:48;;;;;;;;;;;;;;;;;;6212359;22;20252;-91
2022/11/18 15:58:20;;;;;;;;;;;;;;;;;;6213340;22;20057;-92
2022/11/18 16:00:46;;;;;;;;;;;;;;;;;;6239368;22;19923;-94
2022/11/18 16:03:17;;;;;;;;;;;;;;;;;;6227885;23;19926;-92
2022/11/18 16:05:50;;;;;;;;;;;;;;;;;;6230677;23;19953;-93
2022/11/18 16:08:26;;;;;;;;;;;;;;;;;;6233823;23;20001;-94
2022/11/18 16:13:45;;;;;;;;;;;;;;;;;;6230748;23;19919;-92
2022/11/18 16:16:14;;;;;;;;;;;;;;;;;;6232213;23;20244;-93
2022/11/18 16:18:43;;;;;;;;;;;;;;;;;;6226343;22;19920;-94
2022/11/18 16:21:12;;;;;;;;;;;;;;;;;;6232508;23;19926;-92
2022/11/18 16:23:38;;;;;;;;;;;;;;;;;;6227785;23;19954;-93
2022/11/18 16:26:07;;;;;;;;;;;;;;;;;;6232100;23;20002;-94
2022/11/18 16:28:33;;;;;;;;;;;;;;;;;;6232189;23;19938;-95
2022/11/18 16:33:47;;;;;;;;;;;;;;;;;;6232219;23;20352;-94
2022/11/18 16:36:13;;;;;;;;;;;;;;;;;;6233408;23;19999;-94
2022/11/18 16:38:40;;;;;;;;;;;;;;;;;;6232173;23;19919;-95
2022/11/18 16:43:51;;;;;;;;;;;;;;;;;;6229692;23;20361;-93
2022/11/18 16:46:17;;;;;;;;;;;;;;;;;;6235188;23;19954;-92
2022/11/18 16:48:43;;;;;;;;;;;;;;;;;;6232302;23;19916;-95
2022/11/18 16:51:09;;;;;;;;;;;;;;;;;;6233621;23;19920;-93
2022/11/18 16:53:35;;;;;;;;;;;;;;;;;;6229047;23;20241;-93
2022/11/18 16:56:03;;;;;;;;;;;;;;;;;;6232053;23;20004;-93
2022/11/18 17:01:33;;;;;;;;;;;;;;;;;;6257103;22;19950;-93
2022/11/18 17:04:29;;;;;;;;;;;;;;;;;;6230145;23;19942;-93
2022/11/18 17:10:18;;;;;;;;;;;;;;;;;;6190634;23;19924;-93
2022/11/18 17:52:15;;;;;;;;;;;;;;;;;;6244665;22;20261;-92
2022/11/18 17:55:05;;;;;;;;;;;;;;;;;;6211393;23;19946;-91
2022/11/18 18:04:04;;;;;;;;;;;;;;;;;;;;;
2022/11/18 18:06:52;;;;;;;;;;;;;;;;;;6026531;23;20344;-92
2022/11/18 18:09:36;;;;;;;;;;;;;;;;;;6005413;23;20454;-91
2022/11/18 18:18:11;;;;;;;;;;;;;;;;;;5965155;23;19925;-91
2022/11/18 18:21:23;;;;;;;;;;;;;;;;;;;;;
2022/11/18 18:24:38;;;;;;;;;;;;;;;;;;6041872;23;19921;-91
2022/11/18 18:33:30;;;;;;;;;;;;;;;;;;6064582;23;19922;-90
2022/11/18 18:36:15;;;;;;;;;;;;;;;;;;;;;
2022/11/18 18:39:14;;;;;;;;;;;;;;;;;;6065144;23;19944;-92
2022/11/18 18:42:16;;;;;;;;;;;;;;;;;;6019359;23;20431;-91
2022/11/18 18:54:55;;;;;;;;;;;;;;;;;;;;;
2022/11/18 19:04:19;;;;;;;;;;;;;;;;;;5810545;24;20347;-92
2022/11/18 19:10:11;;;;;;;;;;;;;;;;;;;;;
2022/11/18 19:12:54;;;;;;;;;;;;;;;;;;;;;
2022/11/18 19:15:42;;;;;;;;;;;;;;;;;;;;;
2022/11/18 19:27:50;;;;;;;;;;;;;;;;;;5836740;24;20447;-91
2022/11/18 19:30:18;;;;;;;;;;;;;;;;;;5858974;24;20658;-91
2022/11/18 19:33:10;;;;;;;;;;;;;;;;;;;;;
2022/11/18 19:36:01;;;;;;;;;;;;;;;;;;;;;
2022/11/18 19:38:55;;;;;;;;;;;;;;;;;;6041396;23;20047;-92
2022/11/18 19:41:51;;;;;;;;;;;;;;;;;;5952519;23;19930;-92
2022/11/18 19:44:46;;;;;;;;;;;;;;;;;;5935000;24;19927;-93
2022/11/18 19:47:27;;;;;;;;;;;;;;;;;;5985405;23;19922;-93